Time;durP1;ratioP1;P1;durP2;ratioP2;P2;SDS_P1;SDS_P2;PMS_P1;PMS_P2;Temp;Humidity;BMP_temperature;BMP_pressure;BME280_temperature;BME280_humidity;BME280_pressure;Samples;Min_cycle;Max_cycle;Signal;HPM_P1;HPM_P2
2022/03/06 00:01:25;;;;;;;23.70;10.77;;;-1.00;99.90;;;;;;5094379;28;20212;-59
2022/03/06 00:03:51;;;;;;;28.63;12.70;;;-1.00;99.90;;;;;;5092704;28;20238;-58
2022/03/06 00:06:17;;;;;;;28.30;11.70;;;-1.10;99.90;;;;;;5093638;28;20177;-58
2022/03/06 00:08:43;;;;;;;26.63;12.13;;;-1.10;99.90;;;;;;5093086;28;20645;-59
2022/03/06 00:11:09;;;;;;;22.80;11.30;;;-1.10;99.90;;;;;;5076160;28;20190;-60
2022/03/06 00:13:36;;;;;;;24.20;12.20;;;-1.10;99.90;;;;;;5093337;28;20219;-59
2022/03/06 00:16:01;;;;;;;26.80;12.90;;;-1.10;99.90;;;;;;5092009;28;20177;-59
2022/03/06 00:18:27;;;;;;;28.80;13.77;;;-1.10;99.90;;;;;;5093026;28;20191;-59
2022/03/06 00:20:54;;;;;;;29.63;13.17;;;-1.10;99.90;;;;;;5092873;28;20766;-60
2022/03/06 00:23:20;;;;;;;26.77;12.30;;;-1.10;99.90;;;;;;5093045;28;20189;-60
2022/03/06 00:25:46;;;;;;;27.20;13.63;;;-1.10;99.90;;;;;;5093103;28;20183;-60
2022/03/06 00:28:12;;;;;;;31.97;13.63;;;-1.10;99.90;;;;;;5093211;28;20177;-59
2022/03/06 00:30:38;;;;;;;26.67;12.43;;;-1.10;99.90;;;;;;5093179;28;20208;-59
2022/03/06 00:33:06;;;;;;;27.00;13.17;;;-1.10;99.90;;;;;;5092425;28;20236;-60
2022/03/06 00:35:32;;;;;;;32.33;12.33;;;-1.10;99.90;;;;;;5092988;28;20195;-59
2022/03/06 00:37:58;;;;;;;24.07;12.03;;;-1.10;99.90;;;;;;5092726;28;20195;-59
2022/03/06 00:40:25;;;;;;;28.27;12.57;;;-1.10;99.90;;;;;;5092710;28;20177;-58
2022/03/06 00:42:52;;;;;;;23.70;11.27;;;-1.10;99.90;;;;;;5092365;28;20188;-57
2022/03/06 00:45:17;;;;;;;22.53;11.10;;;-1.10;99.90;;;;;;5092546;28;20180;-59
2022/03/06 00:47:43;;;;;;;28.77;12.40;;;-1.10;99.90;;;;;;5092160;28;20168;-59
2022/03/06 00:50:09;;;;;;;29.77;12.63;;;-1.10;99.90;;;;;;5092629;28;20177;-58
2022/03/06 00:52:36;;;;;;;26.77;12.67;;;-1.10;99.90;;;;;;5092473;28;20696;-58
2022/03/06 00:55:03;;;;;;;28.20;11.73;;;-1.10;99.90;;;;;;5092436;28;20207;-59
2022/03/06 00:57:28;;;;;;;27.40;12.87;;;-1.20;99.90;;;;;;5092571;28;20181;-59
2022/03/06 00:59:54;;;;;;;23.40;11.07;;;-1.10;99.90;;;;;;5092323;28;20637;-59
2022/03/06 01:02:20;;;;;;;25.03;12.13;;;-1.20;99.90;;;;;;5074433;28;20246;-60
2022/03/06 01:04:45;;;;;;;26.67;11.33;;;-1.10;99.90;;;;;;5092195;28;20524;-60
2022/03/06 01:07:11;;;;;;;24.77;11.40;;;-1.10;99.90;;;;;;5092446;28;20226;-60
2022/03/06 01:09:37;;;;;;;25.13;11.87;;;-1.10;99.90;;;;;;5092305;28;20255;-59
2022/03/06 01:12:03;;;;;;;20.73;10.10;;;-1.10;99.90;;;;;;5091960;28;20262;-59
2022/03/06 01:14:30;;;;;;;26.40;11.93;;;-1.10;99.90;;;;;;5074048;28;20181;-59
2022/03/06 01:16:55;;;;;;;27.07;12.23;;;-1.10;99.90;;;;;;5091535;28;20177;-59
2022/03/06 01:19:21;;;;;;;26.10;11.63;;;-1.10;99.90;;;;;;5092174;28;20279;-59
2022/03/06 01:21:47;;;;;;;25.03;11.93;;;-1.10;99.90;;;;;;5073534;28;20188;-59
2022/03/06 01:24:13;;;;;;;25.30;11.57;;;-1.10;99.90;;;;;;5092403;28;20605;-59
2022/03/06 01:26:39;;;;;;;22.80;11.33;;;-1.10;99.90;;;;;;5091718;28;20200;-58
2022/03/06 01:29:05;;;;;;;26.77;11.20;;;-1.10;99.90;;;;;;5091515;28;20180;-59
2022/03/06 01:31:31;;;;;;;23.20;11.73;;;-1.10;99.90;;;;;;5092265;28;20173;-58
2022/03/06 01:33:57;;;;;;;23.27;10.77;;;-1.10;99.90;;;;;;5091872;28;20633;-60
2022/03/06 01:36:22;;;;;;;23.83;11.60;;;-1.00;99.90;;;;;;5091961;28;20172;-59
2022/03/06 01:38:48;;;;;;;24.33;11.60;;;-1.00;99.90;;;;;;5091627;28;20260;-58
2022/03/06 01:41:14;;;;;;;26.57;11.93;;;-1.00;99.90;;;;;;5073858;28;20184;-59
2022/03/06 01:43:40;;;;;;;23.60;11.37;;;-1.10;99.90;;;;;;5073874;28;20654;-58
2022/03/06 01:46:06;;;;;;;21.83;10.73;;;-1.10;99.90;;;;;;5091467;28;20268;-59
2022/03/06 01:48:31;;;;;;;25.93;11.37;;;-1.10;99.90;;;;;;5074001;28;20538;-59
2022/03/06 01:50:57;;;;;;;23.87;11.67;;;-1.10;99.90;;;;;;5072918;28;20205;-59
2022/03/06 01:53:23;;;;;;;21.13;9.87;;;-1.10;99.90;;;;;;5091541;28;20271;-59
2022/03/06 01:55:49;;;;;;;22.87;10.70;;;-1.10;99.90;;;;;;5091374;28;20651;-59
2022/03/06 01:58:14;;;;;;;28.40;11.63;;;-1.10;99.90;;;;;;5091682;28;20645;-59
2022/03/06 02:00:48;;;;;;;19.30;8.63;;;-1.10;99.90;;;;;;5091426;28;20204;-59
2022/03/06 02:03:14;;;;;;;24.27;11.27;;;-1.10;99.90;;;;;;5091910;28;20228;-59
2022/03/06 02:05:40;;;;;;;25.07;11.23;;;-1.10;99.90;;;;;;5091604;28;20188;-59
2022/03/06 02:08:06;;;;;;;22.73;10.73;;;-1.10;99.90;;;;;;5091821;28;20184;-58
2022/03/06 02:10:33;;;;;;;22.90;11.63;;;-1.20;99.90;;;;;;5091627;28;20627;-59
2022/03/06 02:12:59;;;;;;;20.50;10.93;;;-1.20;99.90;;;;;;5091273;28;20298;-59
2022/03/06 02:15:25;;;;;;;19.37;10.37;;;-1.20;99.90;;;;;;5091846;28;20177;-59
2022/03/06 02:17:51;;;;;;;22.87;10.63;;;-1.20;99.90;;;;;;5091243;28;20602;-59
2022/03/06 02:20:22;;;;;;;25.60;11.17;;;-1.20;99.90;;;;;;5091489;28;20188;-59
2022/03/06 02:22:50;;;;;;;23.03;11.07;;;-1.10;99.90;;;;;;5091295;28;20220;-59
2022/03/06 02:25:25;;;;;;;24.67;11.10;;;-1.10;99.90;;;;;;5091464;28;20203;-60
2022/03/06 02:27:52;;;;;;;20.00;9.47;;;-1.20;99.90;;;;;;5091435;28;20168;-58
2022/03/06 02:30:24;;;;;;;21.33;10.47;;;-1.10;99.90;;;;;;5091498;28;20177;-58
2022/03/06 02:32:51;;;;;;;23.37;10.50;;;-1.10;99.90;;;;;;5090986;28;20288;-59
2022/03/06 02:35:18;;;;;;;25.07;10.73;;;-1.10;99.90;;;;;;5091504;28;20179;-59
2022/03/06 02:37:44;;;;;;;20.53;9.30;;;-1.10;99.90;;;;;;5090836;28;20189;-62
2022/03/06 02:40:12;;;;;;;24.33;11.03;;;-1.20;99.90;;;;;;5093693;28;20204;-59
2022/03/06 02:42:40;;;;;;;24.17;11.37;;;-1.20;99.90;;;;;;5095279;28;20265;-59
2022/03/06 02:45:15;;;;;;;26.73;11.47;;;-1.20;99.90;;;;;;5094934;28;20185;-58
2022/03/06 02:47:41;;;;;;;24.33;11.77;;;-1.20;99.90;;;;;;5095089;28;20217;-58
2022/03/06 02:50:09;;;;;;;24.67;11.87;;;-1.20;99.90;;;;;;5094907;28;20192;-59
2022/03/06 02:52:35;;;;;;;22.63;11.47;;;-1.20;99.90;;;;;;5094340;28;20228;-60
2022/03/06 02:55:01;;;;;;;24.10;11.13;;;-1.20;99.90;;;;;;5095256;28;20658;-60
2022/03/06 02:57:27;;;;;;;23.33;11.77;;;-1.10;99.90;;;;;;5094732;28;20195;-58
2022/03/06 02:59:53;;;;;;;23.07;10.53;;;-1.10;99.90;;;;;;5094680;28;20264;-58
2022/03/06 03:02:18;;;;;;;25.50;10.93;;;-1.10;99.90;;;;;;5076809;28;20185;-60
2022/03/06 03:04:44;;;;;;;27.33;11.30;;;-1.10;99.90;;;;;;5094434;28;20635;-59
2022/03/06 03:07:10;;;;;;;22.33;11.43;;;-1.20;99.90;;;;;;5094520;28;20636;-60
2022/03/06 03:09:36;;;;;;;22.33;10.20;;;-1.20;99.90;;;;;;5095095;28;20174;-60
2022/03/06 03:12:03;;;;;;;25.63;11.53;;;-1.20;99.90;;;;;;5094230;28;20185;-59
2022/03/06 03:14:32;;;;;;;24.00;10.83;;;-1.10;99.90;;;;;;5094506;28;20172;-59
2022/03/06 03:17:02;;;;;;;24.07;12.13;;;-1.10;99.90;;;;;;5094110;28;20192;-59
2022/03/06 03:19:28;;;;;;;26.90;10.70;;;-1.10;99.90;;;;;;5094327;28;20179;-58
2022/03/06 03:21:55;;;;;;;18.97;10.10;;;-1.10;99.90;;;;;;5093631;28;20320;-58
2022/03/06 03:24:22;;;;;;;22.57;10.37;;;-1.10;99.90;;;;;;5094683;28;20187;-59
2022/03/06 03:26:47;;;;;;;21.43;10.73;;;-1.20;99.90;;;;;;5094058;28;20182;-59
2022/03/06 03:29:13;;;;;;;19.40;9.50;;;-1.20;99.90;;;;;;5094288;28;20637;-58
2022/03/06 03:31:39;;;;;;;20.33;10.60;;;-1.10;99.90;;;;;;5094238;28;20220;-58
2022/03/06 03:34:05;;;;;;;23.07;10.17;;;-1.10;99.90;;;;;;5093810;28;20213;-58
2022/03/06 03:36:30;;;;;;;22.07;10.63;;;-1.00;99.90;;;;;;5093841;28;20181;-59
2022/03/06 03:38:56;;;;;;;24.40;10.90;;;-1.00;99.90;;;;;;5093522;28;20254;-58
2022/03/06 03:41:24;;;;;;;25.50;11.80;;;-1.00;99.90;;;;;;5076103;28;20176;-58
2022/03/06 03:43:50;;;;;;;26.53;12.03;;;-1.00;99.90;;;;;;5093755;28;20224;-59
2022/03/06 03:46:16;;;;;;;24.77;11.67;;;-1.10;99.90;;;;;;5094075;28;20177;-59
2022/03/06 03:48:42;;;;;;;25.27;11.80;;;-1.10;99.90;;;;;;5094145;28;20234;-62
2022/03/06 03:51:07;;;;;;;25.53;11.70;;;-1.10;99.90;;;;;;5093535;28;20227;-61
2022/03/06 03:53:34;;;;;;;19.27;8.77;;;-1.10;99.90;;;;;;5072022;28;20234;-58
2022/03/06 03:56:00;;;;;;;21.37;10.03;;;-1.10;99.90;;;;;;5073403;28;20188;-58
2022/03/06 03:58:26;;;;;;;18.73;9.60;;;-1.00;99.90;;;;;;5073507;28;20590;-58
2022/03/06 04:00:54;;;;;;;22.07;10.30;;;-1.10;99.90;;;;;;5071898;28;20192;-60
2022/03/06 04:03:20;;;;;;;21.40;9.63;;;-1.10;99.90;;;;;;5073335;28;20217;-59
2022/03/06 04:05:46;;;;;;;21.10;9.57;;;-1.00;99.90;;;;;;5072997;28;20666;-59
2022/03/06 04:08:12;;;;;;;21.00;9.90;;;-1.00;99.90;;;;;;5073258;28;20646;-60
2022/03/06 04:10:37;;;;;;;22.60;9.97;;;-1.00;99.90;;;;;;5073232;28;20662;-59
2022/03/06 04:13:03;;;;;;;19.00;9.07;;;-0.90;99.90;;;;;;5072819;28;20220;-59
2022/03/06 04:15:29;;;;;;;20.67;9.30;;;-0.90;99.90;;;;;;5073224;28;20172;-59
2022/03/06 04:17:55;;;;;;;22.90;10.43;;;-0.90;99.90;;;;;;5072816;28;20263;-58
2022/03/06 04:20:21;;;;;;;19.67;9.30;;;-1.00;99.90;;;;;;5073157;28;20221;-59
2022/03/06 04:22:46;;;;;;;19.33;8.87;;;-1.00;99.90;;;;;;5072453;28;20554;-57
2022/03/06 04:25:12;;;;;;;19.83;9.70;;;-1.00;99.90;;;;;;5071363;28;20237;-58
2022/03/06 04:27:38;;;;;;;24.63;11.87;;;-1.00;99.90;;;;;;5072833;28;20180;-59
2022/03/06 04:30:05;;;;;;;28.47;11.60;;;-1.00;99.90;;;;;;5071200;28;20185;-59
2022/03/06 04:32:30;;;;;;;18.57;8.03;;;-1.00;99.90;;;;;;5072413;28;20218;-60
2022/03/06 04:34:56;;;;;;;17.97;8.57;;;-1.00;99.90;;;;;;5071100;28;20639;-58
2022/03/06 04:37:22;;;;;;;19.23;9.03;;;-1.00;99.90;;;;;;5072491;28;20188;-58
2022/03/06 04:39:48;;;;;;;14.47;8.17;;;-1.00;99.90;;;;;;5072283;28;20182;-60
2022/03/06 04:42:14;;;;;;;18.97;9.87;;;-1.00;99.90;;;;;;5072625;28;20277;-59
2022/03/06 04:44:39;;;;;;;22.70;9.37;;;-1.00;99.90;;;;;;5072760;28;20204;-59
2022/03/06 04:47:06;;;;;;;23.67;9.67;;;-1.00;99.90;;;;;;5071866;28;20188;-59
2022/03/06 04:49:32;;;;;;;22.50;9.10;;;-1.00;99.90;;;;;;5072558;28;20191;-59
2022/03/06 04:51:58;;;;;;;20.03;8.83;;;-0.90;99.90;;;;;;5074164;28;20635;-59
2022/03/06 04:54:24;;;;;;;17.27;8.93;;;-0.90;99.90;;;;;;5074060;28;20215;-61
2022/03/06 04:56:50;;;;;;;20.40;9.73;;;-0.90;99.90;;;;;;5091843;28;20626;-60
2022/03/06 04:59:16;;;;;;;17.30;8.40;;;-0.90;99.90;;;;;;5092296;28;20185;-59
2022/03/06 05:01:42;;;;;;;16.13;8.90;;;-1.00;99.90;;;;;;5092044;28;20578;-67
2022/03/06 05:04:08;;;;;;;20.03;9.60;;;-0.90;99.90;;;;;;5092286;28;20192;-58
2022/03/06 05:06:34;;;;;;;17.43;9.43;;;-0.90;99.90;;;;;;5092356;28;20175;-59
2022/03/06 05:09:00;;;;;;;17.90;8.97;;;-1.00;99.90;;;;;;5091816;28;20196;-59
2022/03/06 05:11:26;;;;;;;17.37;9.07;;;-1.00;99.90;;;;;;5092103;28;20257;-57
2022/03/06 05:13:52;;;;;;;18.07;8.87;;;-0.90;99.90;;;;;;5091829;28;20743;-58
2022/03/06 05:16:18;;;;;;;16.63;8.57;;;-0.90;99.90;;;;;;5092260;28;20176;-59
2022/03/06 05:18:44;;;;;;;17.23;9.20;;;-0.80;99.90;;;;;;5091734;28;20189;-59
2022/03/06 05:21:09;;;;;;;20.20;9.87;;;-0.80;99.90;;;;;;5092156;28;20208;-58
2022/03/06 05:23:35;;;;;;;21.53;9.70;;;-0.90;99.90;;;;;;5091885;28;20186;-59
2022/03/06 05:26:01;;;;;;;17.57;8.83;;;-0.80;99.90;;;;;;5091703;28;20483;-59
2022/03/06 05:28:27;;;;;;;17.73;8.97;;;-0.80;99.90;;;;;;5091688;28;20185;-59
2022/03/06 05:30:53;;;;;;;19.73;9.20;;;-0.80;99.90;;;;;;5090969;28;20180;-59
2022/03/06 05:33:19;;;;;;;15.23;8.10;;;-0.70;99.90;;;;;;5091759;28;20214;-59
2022/03/06 05:35:46;;;;;;;21.10;8.90;;;-0.70;99.90;;;;;;5091563;28;20176;-60
2022/03/06 05:38:12;;;;;;;17.07;8.80;;;-0.60;99.90;;;;;;5073943;28;20200;-60
2022/03/06 05:40:38;;;;;;;18.77;8.77;;;-0.60;99.90;;;;;;5091729;28;20597;-59
2022/03/06 05:43:04;;;;;;;25.73;9.83;;;-0.60;99.90;;;;;;5091125;28;20181;-58
2022/03/06 05:45:30;;;;;;;23.40;9.73;;;-0.60;99.90;;;;;;5091308;28;20181;-59
2022/03/06 05:47:56;;;;;;;17.37;8.60;;;-0.50;99.90;;;;;;5091269;28;20183;-60
2022/03/06 05:50:22;;;;;;;17.70;8.40;;;-0.40;99.90;;;;;;5091486;28;20268;-59
2022/03/06 05:52:48;;;;;;;18.10;9.10;;;-0.40;99.90;;;;;;5090717;28;20253;-58
2022/03/06 05:55:14;;;;;;;20.00;9.27;;;-0.40;99.90;;;;;;5091480;28;20187;-60
2022/03/06 05:57:41;;;;;;;20.27;9.80;;;-0.40;99.90;;;;;;5072807;28;20177;-58
2022/03/06 06:00:08;;;;;;;23.27;9.70;;;-0.30;99.90;;;;;;5090818;28;20668;-61
2022/03/06 06:02:37;;;;;;;16.77;9.23;;;0.00;99.90;;;;;;5091091;28;20181;-59
2022/03/06 06:05:05;;;;;;;15.53;9.67;;;0.10;99.90;;;;;;5091344;28;20257;-58
2022/03/06 06:07:31;;;;;;;18.03;9.73;;;0.10;99.90;;;;;;5073446;28;20547;-59
2022/03/06 06:09:56;;;;;;;20.33;10.60;;;0.20;99.90;;;;;;5091294;28;20185;-60
2022/03/06 06:12:22;;;;;;;21.13;10.03;;;0.20;99.90;;;;;;5091133;28;20221;-59
2022/03/06 06:14:48;;;;;;;17.70;9.10;;;0.10;99.90;;;;;;5074510;28;20208;-60
2022/03/06 06:17:14;;;;;;;18.23;8.80;;;0.20;99.90;;;;;;5095592;28;20189;-59
2022/03/06 06:19:40;;;;;;;14.87;8.20;;;0.20;99.90;;;;;;5095524;28;20179;-58
2022/03/06 06:22:05;;;;;;;18.30;8.97;;;0.20;99.90;;;;;;5095148;28;20660;-58
2022/03/06 06:24:31;;;;;;;17.07;8.20;;;0.20;99.90;;;;;;5095202;28;20212;-58
2022/03/06 06:26:57;;;;;;;16.30;8.57;;;0.10;99.90;;;;;;5094862;28;20255;-62
2022/03/06 06:29:23;;;;;;;16.40;7.90;;;0.10;99.90;;;;;;5095082;28;20217;-60
2022/03/06 06:31:51;;;;;;;17.33;8.87;;;0.00;99.90;;;;;;5095113;28;20188;-59
2022/03/06 06:34:17;;;;;;;15.77;7.90;;;0.00;99.90;;;;;;5094984;28;20674;-60
2022/03/06 06:36:43;;;;;;;18.67;9.07;;;0.10;99.90;;;;;;5077006;28;20714;-63
2022/03/06 06:39:11;;;;;;;16.87;8.77;;;0.20;99.90;;;;;;5094845;28;20226;-59
2022/03/06 06:41:39;;;;;;;18.70;9.53;;;0.10;99.90;;;;;;5094635;28;20183;-59
2022/03/06 06:44:05;;;;;;;14.63;7.53;;;0.10;99.90;;;;;;5095170;28;20264;-59
2022/03/06 06:46:32;;;;;;;16.67;9.03;;;0.10;99.90;;;;;;5095191;28;20173;-59
2022/03/06 06:48:57;;;;;;;16.53;8.77;;;0.10;99.90;;;;;;5094614;28;20676;-59
2022/03/06 06:51:23;;;;;;;18.77;8.70;;;0.00;99.90;;;;;;5095040;28;20262;-60
2022/03/06 06:53:49;;;;;;;18.93;9.00;;;0.00;99.90;;;;;;5094159;28;20238;-60
2022/03/06 06:56:15;;;;;;;20.57;10.70;;;0.00;99.90;;;;;;5094606;28;20189;-59
2022/03/06 06:58:41;;;;;;;22.03;11.60;;;0.10;99.90;;;;;;5076399;28;20276;-60
2022/03/06 07:01:07;;;;;;;22.07;11.40;;;0.20;99.90;;;;;;5094569;28;20218;-58
2022/03/06 07:03:33;;;;;;;24.03;11.60;;;0.20;99.90;;;;;;5094553;28;20520;-59
2022/03/06 07:05:59;;;;;;;26.00;12.17;;;0.20;99.90;;;;;;5094277;28;20233;-60
2022/03/06 07:08:25;;;;;;;20.60;11.03;;;0.10;99.90;;;;;;5094452;28;20266;-59
2022/03/06 07:10:51;;;;;;;23.40;11.03;;;0.10;99.90;;;;;;5093645;28;20174;-61
2022/03/06 07:13:17;;;;;;;24.50;12.00;;;0.00;99.90;;;;;;5059270;28;20214;-59
2022/03/06 07:15:44;;;;;;;23.27;12.50;;;0.10;99.90;;;;;;5076372;28;20530;-61
2022/03/06 07:18:09;;;;;;;25.13;14.00;;;0.10;99.90;;;;;;5075709;28;20174;-62
2022/03/06 07:20:35;;;;;;;23.60;12.43;;;0.20;99.90;;;;;;5094077;28;20523;-62
2022/03/06 07:23:01;;;;;;;22.67;11.77;;;0.10;99.90;;;;;;5075677;28;20219;-60
2022/03/06 07:25:27;;;;;;;23.33;11.80;;;0.00;99.90;;;;;;5093140;28;20553;-59
2022/03/06 07:27:53;;;;;;;27.60;11.93;;;0.00;99.90;;;;;;5093650;28;20190;-59
2022/03/06 07:30:19;;;;;;;22.60;11.87;;;0.10;99.90;;;;;;5093803;28;20317;-60
2022/03/06 07:32:47;;;;;;;26.50;11.93;;;0.10;99.90;;;;;;5093999;28;20210;-64
2022/03/06 07:35:14;;;;;;;22.73;11.57;;;0.10;99.90;;;;;;5058945;28;20182;-62
2022/03/06 07:37:41;;;;;;;23.70;11.67;;;0.30;99.90;;;;;;5093809;28;20278;-61
2022/03/06 07:40:08;;;;;;;21.20;11.27;;;0.30;99.90;;;;;;5093198;28;20178;-60
2022/03/06 07:42:34;;;;;;;26.67;11.60;;;0.40;99.90;;;;;;5093328;28;20270;-59
2022/03/06 07:45:00;;;;;;;23.97;11.00;;;0.40;99.90;;;;;;5074826;28;20194;-61
2022/03/06 07:47:26;;;;;;;20.47;10.90;;;0.50;99.90;;;;;;5093251;28;20186;-60
2022/03/06 07:49:52;;;;;;;21.97;10.67;;;0.60;99.90;;;;;;5093424;28;20235;-58
2022/03/06 07:52:18;;;;;;;24.43;13.63;;;0.70;99.90;;;;;;5092753;28;20246;-60
2022/03/06 07:54:43;;;;;;;22.93;11.53;;;0.80;99.90;;;;;;5093223;28;20186;-59
2022/03/06 07:57:09;;;;;;;22.23;11.37;;;0.80;99.90;;;;;;5093361;28;20233;-61
2022/03/06 07:59:36;;;;;;;24.00;10.97;;;0.80;99.90;;;;;;5093000;28;20813;-59
2022/03/06 08:02:02;;;;;;;25.77;12.30;;;0.80;99.90;;;;;;5092635;28;20191;-61
2022/03/06 08:04:28;;;;;;;23.30;12.53;;;0.80;99.90;;;;;;5092736;28;20179;-60
2022/03/06 08:06:54;;;;;;;22.57;12.40;;;0.70;99.90;;;;;;5074260;28;20631;-60
2022/03/06 08:09:19;;;;;;;23.27;12.07;;;0.80;99.90;;;;;;5092804;28;20646;-60
2022/03/06 08:11:45;;;;;;;22.43;11.27;;;0.70;99.90;;;;;;5092545;28;20650;-59
2022/03/06 08:14:11;;;;;;;25.07;11.87;;;0.70;99.90;;;;;;5074150;28;20251;-63
2022/03/06 08:16:38;;;;;;;24.40;11.63;;;0.70;99.90;;;;;;5092770;28;20187;-60
2022/03/06 08:19:04;;;;;;;26.33;12.43;;;0.70;99.90;;;;;;5092017;28;20209;-60
2022/03/06 08:21:30;;;;;;;24.00;13.23;;;0.80;99.90;;;;;;5092530;28;20174;-60
2022/03/06 08:23:56;;;;;;;21.87;11.93;;;0.80;99.90;;;;;;5073912;28;20713;-59
2022/03/06 08:26:23;;;;;;;24.70;12.37;;;0.90;99.90;;;;;;5092607;28;20249;-59
2022/03/06 08:28:50;;;;;;;22.53;12.30;;;0.90;99.90;;;;;;5092228;28;20521;-65
2022/03/06 08:31:16;;;;;;;23.43;12.37;;;1.20;99.90;;;;;;5092208;28;20202;-59
2022/03/06 08:33:42;;;;;;;20.20;11.47;;;1.30;99.90;;;;;;5074295;28;20248;-59
2022/03/06 08:36:08;;;;;;;20.33;10.73;;;1.20;99.90;;;;;;5073975;28;20206;-59
2022/03/06 08:38:33;;;;;;;25.00;12.80;;;1.10;99.90;;;;;;5073638;28;20244;-60
2022/03/06 08:40:59;;;;;;;24.60;11.63;;;1.10;99.90;;;;;;5091885;28;20179;-59
2022/03/06 08:43:25;;;;;;;22.10;11.77;;;1.10;99.90;;;;;;5092178;28;20635;-59
2022/03/06 08:45:51;;;;;;;25.00;11.87;;;1.10;99.90;;;;;;5091700;28;20186;-61
2022/03/06 08:48:17;;;;;;;23.20;12.10;;;1.20;99.90;;;;;;5091775;28;20191;-59
2022/03/06 08:50:43;;;;;;;22.43;11.43;;;1.30;99.90;;;;;;5073392;28;20263;-60
2022/03/06 08:53:09;;;;;;;22.67;11.67;;;1.50;99.90;;;;;;5091207;28;20561;-60
2022/03/06 08:55:34;;;;;;;22.20;11.40;;;1.60;99.90;;;;;;5092176;28;20480;-60
2022/03/06 08:58:00;;;;;;;22.77;10.50;;;1.60;99.90;;;;;;5091716;28;20326;-61
2022/03/06 09:00:26;;;;;;;22.30;10.40;;;1.50;99.90;;;;;;5091996;28;20200;-59
2022/03/06 09:02:52;;;;;;;23.93;10.63;;;1.50;99.90;;;;;;5091671;28;20699;-66
2022/03/06 09:05:20;;;;;;;21.40;11.33;;;1.50;99.90;;;;;;5073334;28;20294;-61
2022/03/06 09:07:46;;;;;;;21.57;10.87;;;1.60;99.90;;;;;;5057751;28;20190;-60
2022/03/06 09:10:12;;;;;;;26.73;11.57;;;1.50;99.90;;;;;;5091612;28;20202;-60
2022/03/06 09:12:39;;;;;;;30.53;11.10;;;1.50;99.90;;;;;;5091365;28;20581;-62
2022/03/06 09:15:06;;;;;;;23.73;11.27;;;1.60;99.90;;;;;;5090972;28;20189;-59
2022/03/06 09:17:32;;;;;;;22.57;9.77;;;1.70;99.90;;;;;;5091505;28;20177;-59
2022/03/06 09:19:58;;;;;;;40.60;10.60;;;1.80;99.90;;;;;;5072938;28;20245;-60
2022/03/06 09:22:24;;;;;;;23.33;11.93;;;1.80;99.90;;;;;;5056814;28;20204;-60
2022/03/06 09:24:50;;;;;;;23.17;9.97;;;2.10;99.90;;;;;;5091610;28;20183;-61
2022/03/06 09:27:15;;;;;;;23.57;8.47;;;2.00;99.90;;;;;;5091321;28;20252;-59
2022/03/06 09:29:41;;;;;;;33.20;9.57;;;1.90;99.90;;;;;;5091126;28;20221;-61
2022/03/06 09:32:07;;;;;;;28.70;10.27;;;2.00;99.90;;;;;;5091255;28;20583;-62
2022/03/06 09:34:33;;;;;;;21.30;8.80;;;2.10;99.90;;;;;;5091415;28;20173;-61
2022/03/06 09:36:59;;;;;;;56.17;11.40;;;2.00;99.90;;;;;;5091203;28;20723;-60
2022/03/06 09:39:25;;;;;;;57.73;10.60;;;2.20;99.90;;;;;;5090926;28;20177;-61
2022/03/06 09:41:54;;;;;;;49.03;10.83;;;2.50;99.90;;;;;;5091065;28;20225;-60
2022/03/06 09:44:23;;;;;;;45.90;10.43;;;2.50;99.90;;;;;;5091188;28;20196;-60
2022/03/06 09:46:52;;;;;;;41.17;8.67;;;2.40;99.90;;;;;;5091144;28;20180;-61
2022/03/06 09:49:18;;;;;;;34.93;9.03;;;2.50;99.90;;;;;;5090183;28;20181;-61
2022/03/06 09:51:44;;;;;;;18.90;8.40;;;2.50;99.90;;;;;;5091155;28;20231;-61
2022/03/06 09:54:12;;;;;;;26.33;8.37;;;2.40;99.90;;;;;;5091166;28;20221;-61
2022/03/06 09:56:38;;;;;;;70.47;12.27;;;2.40;99.90;;;;;;5090987;28;20268;-59
2022/03/06 09:59:04;;;;;;;45.73;11.83;;;2.70;99.90;;;;;;5090712;28;20525;-60
2022/03/06 10:01:30;;;;;;;65.50;13.10;;;2.90;99.90;;;;;;5072212;28;20196;-63
2022/03/06 10:03:56;;;;;;;44.20;10.53;;;3.10;99.90;;;;;;5090367;28;20206;-60
2022/03/06 10:06:23;;;;;;;21.77;9.70;;;3.10;99.90;;;;;;5072312;28;20591;-60
2022/03/06 10:09:07;;;;;;;40.23;10.03;;;2.80;99.90;;;;;;5072344;28;20542;-60
2022/03/06 10:11:33;;;;;;;61.60;12.47;;;2.60;99.90;;;;;;5090936;28;20299;-60
2022/03/06 10:13:59;;;;;;;23.70;8.97;;;2.70;99.90;;;;;;5090589;28;20621;-61
2022/03/06 10:16:25;;;;;;;71.07;12.83;;;2.90;99.90;;;;;;5072244;28;20222;-60
2022/03/06 10:18:54;;;;;;;52.53;15.87;;;3.10;99.90;;;;;;5090903;28;20185;-61
2022/03/06 10:21:26;;;;;;;30.20;10.80;;;3.10;99.90;;;;;;5090992;28;20649;-60
2022/03/06 10:23:53;;;;;;;25.07;9.60;;;2.80;99.90;;;;;;5090876;28;20218;-61
2022/03/06 10:26:25;;;;;;;34.37;9.87;;;2.60;99.90;;;;;;5090942;28;20177;-60
2022/03/06 10:28:53;;;;;;;23.63;8.77;;;2.70;99.90;;;;;;5091490;28;20245;-62
2022/03/06 10:31:20;;;;;;;48.57;10.17;;;2.70;99.90;;;;;;5090758;28;20259;-59
2022/03/06 10:34:05;;;;;;;30.77;9.17;;;2.70;99.90;;;;;;5091725;28;20548;-60
2022/03/06 10:36:35;;;;;;;73.43;10.67;;;3.00;99.90;;;;;;5091253;28;20192;-61
2022/03/06 10:39:07;;;;;;;26.27;7.63;;;3.00;99.90;;;;;;5090826;28;20179;-60
2022/03/06 10:41:36;;;;;;;30.83;8.77;;;3.00;99.90;;;;;;5090582;28;20162;-59
2022/03/06 10:44:02;;;;;;;22.00;7.53;;;3.30;99.90;;;;;;5090679;28;20663;-61
2022/03/06 10:46:33;;;;;;;37.47;8.60;;;3.50;99.90;;;;;;5090387;28;20538;-59
2022/03/06 10:49:16;;;;;;;39.70;7.67;;;3.70;99.90;;;;;;5090236;28;20186;-61
2022/03/06 10:51:52;;;;;;;26.43;7.37;;;3.80;99.90;;;;;;5089794;28;20186;-61
2022/03/06 10:54:19;;;;;;;28.67;7.30;;;3.70;99.90;;;;;;5089984;28;20247;-59
2022/03/06 10:56:49;;;;;;;35.87;8.13;;;3.70;99.90;;;;;;5089994;28;20206;-61
2022/03/06 10:59:19;;;;;;;27.57;8.37;;;3.60;99.90;;;;;;5089796;28;20185;-60
2022/03/06 11:01:47;;;;;;;34.33;8.20;;;3.70;99.90;;;;;;5093535;28;20171;-60
2022/03/06 11:04:15;;;;;;;25.63;10.20;;;3.80;99.90;;;;;;5094148;28;20583;-60
2022/03/06 11:06:42;;;;;;;30.43;9.30;;;3.80;99.90;;;;;;5058779;28;20178;-59
2022/03/06 11:09:16;;;;;;;27.43;9.23;;;3.70;99.90;;;;;;5093905;28;20178;-60
2022/03/06 11:11:48;;;;;;;43.37;11.13;;;3.60;99.90;;;;;;5093921;28;20173;-60
2022/03/06 11:14:14;;;;;;;53.80;10.17;;;3.70;99.90;;;;;;5093567;28;20210;-60
2022/03/06 11:16:42;;;;;;;17.23;7.50;;;3.80;99.90;;;;;;5093510;28;20634;-60
2022/03/06 11:19:09;;;;;;;24.37;7.77;;;3.80;99.90;;;;;;5093736;28;20183;-59
2022/03/06 11:21:38;;;;;;;52.40;10.67;;;3.70;99.90;;;;;;5058573;28;20238;-61
2022/03/06 11:24:19;;;;;;;24.27;8.77;;;3.40;99.90;;;;;;5093258;28;20277;-62
2022/03/06 11:27:19;;;;;;;26.33;7.97;;;3.40;99.90;;;;;;5074899;28;20235;-63
2022/03/06 11:29:51;;;;;;;50.97;9.60;;;3.00;99.90;;;;;;5093649;28;20262;-60
2022/03/06 11:32:25;;;;;;;26.27;6.33;;;2.90;99.90;;;;;;5092800;28;20322;-60
2022/03/06 11:34:54;;;;;;;14.53;5.97;;;3.00;99.90;;;;;;5074823;28;20181;-62
2022/03/06 11:37:21;;;;;;;19.13;6.07;;;2.80;99.90;;;;;;5092834;28;20169;-59
2022/03/06 11:39:48;;;;;;;10.83;5.23;;;2.50;99.90;;;;;;5092849;28;20643;-62
2022/03/06 11:42:53;;;;;;;16.17;5.23;;;2.20;99.90;;;;;;5092720;28;20238;-62
2022/03/06 11:45:46;;;;;;;16.53;6.37;;;2.00;99.90;;;;;;5090601;28;20199;-61
2022/03/06 11:48:41;;;;;;;21.20;7.10;;;2.00;99.90;;;;;;5045702;28;20192;-59
2022/03/06 11:51:17;;;;;;;19.00;7.40;;;2.00;99.90;;;;;;5071006;28;20256;-60
2022/03/06 11:54:07;;;;;;;34.30;7.60;;;2.00;99.90;;;;;;5070570;28;20228;-61
2022/03/06 11:56:35;;;;;;;19.97;6.77;;;2.00;99.90;;;;;;5071526;28;20637;-61
2022/03/06 11:59:10;;;;;;;30.03;8.57;;;2.00;99.90;;;;;;5072386;28;20192;-68
2022/03/06 12:01:41;;;;;;;29.10;8.37;;;1.90;99.90;;;;;;5071820;28;20180;-61
2022/03/06 12:04:09;;;;;;;44.50;8.17;;;2.10;99.90;;;;;;5070160;28;20311;-60
2022/03/06 12:06:39;;;;;;;34.77;8.67;;;2.20;99.90;;;;;;5071859;28;20173;-62
2022/03/06 12:09:21;;;;;;;30.00;8.47;;;2.30;99.90;;;;;;5071962;28;20195;-62
2022/03/06 12:11:49;;;;;;;31.47;8.80;;;2.40;99.90;;;;;;5070526;28;20260;-61
2022/03/06 12:14:27;;;;;;;22.20;8.23;;;2.40;99.90;;;;;;5071926;28;20213;-63
2022/03/06 12:17:16;;;;;;;23.30;8.30;;;2.40;99.90;;;;;;5072025;28;20279;-61
2022/03/06 12:19:45;;;;;;;26.60;7.63;;;2.50;99.90;;;;;;5070480;28;20268;-62
2022/03/06 12:22:12;;;;;;;15.70;6.60;;;2.60;99.90;;;;;;5071672;28;20200;-62
2022/03/06 12:24:38;;;;;;;32.67;9.07;;;2.50;99.90;;;;;;5071697;28;20225;-61
2022/03/06 12:27:11;;;;;;;37.77;9.23;;;2.50;99.90;;;;;;5070840;28;20663;-62
2022/03/06 12:29:46;;;;;;;15.07;7.13;;;2.40;99.90;;;;;;5071813;28;20277;-61
2022/03/06 12:32:27;;;;;;;16.77;6.97;;;2.40;99.90;;;;;;5070080;28;20204;-63
2022/03/06 12:34:57;;;;;;;26.53;8.63;;;2.60;99.90;;;;;;5070294;28;20264;-62
2022/03/06 12:37:24;;;;;;;22.33;6.80;;;2.50;99.90;;;;;;5071490;28;20220;-61